createdAt,value
2018-02-06T00:01:18.849Z,91.17
2018-02-06T00:03:44.763Z,91.29
2018-02-06T00:06:10.569Z,91.58
2018-02-06T00:08:36.427Z,91.83
2018-02-06T00:11:02.628Z,92.06
2018-02-06T00:13:28.406Z,92.13
2018-02-06T00:15:54.194Z,91.94
2018-02-06T00:18:19.978Z,91.07
2018-02-06T00:20:45.756Z,91.01
2018-02-06T00:23:11.550Z,90.91
2018-02-06T00:25:37.346Z,91.19
2018-02-06T00:28:03.110Z,90.86
2018-02-06T00:30:28.995Z,90.61
2018-02-06T00:32:54.772Z,90.44
2018-02-06T00:35:20.565Z,90.53
2018-02-06T00:37:46.462Z,90.35
2018-02-06T00:40:12.249Z,90.52
2018-02-06T00:42:38.017Z,90.72
2018-02-06T00:45:03.794Z,90.33
2018-02-06T00:47:29.762Z,90.35
2018-02-06T00:49:55.550Z,90.54
2018-02-06T00:52:21.323Z,90.32
2018-02-06T00:54:47.098Z,90.20
2018-02-06T00:57:12.915Z,90.30
2018-02-06T00:59:38.708Z,90.46
2018-02-06T01:02:11.483Z,90.98
2018-02-06T01:04:37.291Z,91.07
2018-02-06T01:07:03.213Z,91.61
2018-02-06T01:09:36.005Z,91.64
2018-02-06T01:12:01.797Z,90.85
2018-02-06T01:14:27.608Z,91.14
2018-02-06T01:16:53.400Z,91.17
2018-02-06T01:19:19.170Z,90.87
2018-02-06T01:21:44.964Z,90.60
2018-02-06T01:24:10.725Z,90.21
2018-02-06T01:26:36.494Z,90.05
2018-02-06T01:29:02.617Z,90.46
2018-02-06T01:31:28.398Z,90.81
2018-02-06T01:33:54.174Z,90.27
2018-02-06T01:36:20.292Z,90.76
2018-02-06T01:38:46.069Z,90.85
2018-02-06T01:41:11.858Z,90.78
2018-02-06T01:43:37.630Z,90.88
2018-02-06T01:46:03.421Z,90.96
2018-02-06T01:48:29.194Z,90.91
2018-02-06T01:50:54.982Z,91.30
2018-02-06T01:53:20.774Z,91.55
2018-02-06T01:55:46.600Z,91.76
2018-02-06T01:58:12.333Z,91.78
2018-02-06T02:00:38.142Z,92.00
2018-02-06T02:03:03.917Z,91.96
2018-02-06T02:05:29.706Z,92.16
2018-02-06T02:07:55.501Z,92.31
2018-02-06T02:10:21.291Z,92.39
2018-02-06T02:12:47.056Z,92.31
2018-02-06T02:15:12.863Z,92.12
2018-02-06T02:17:38.692Z,92.32
2018-02-06T02:20:04.474Z,92.16
2018-02-06T02:22:30.259Z,92.14
2018-02-06T02:24:56.074Z,92.30
2018-02-06T02:27:21.886Z,92.22
2018-02-06T02:29:47.707Z,92.31
2018-02-06T02:32:13.604Z,92.56
2018-02-06T02:34:39.395Z,92.96
2018-02-06T02:37:05.174Z,93.10
2018-02-06T02:39:30.974Z,92.96
2018-02-06T04:38:32.943Z,92.95
2018-02-06T04:40:59.208Z,93.15
2018-02-06T04:43:24.991Z,93.24
2018-02-06T04:45:50.824Z,93.13
2018-02-06T04:48:16.646Z,92.88
2018-02-06T04:50:42.458Z,93.13
2018-02-06T04:53:08.262Z,93.04
2018-02-06T04:55:34.415Z,93.04
2018-02-06T04:58:00.928Z,93.20
2018-02-06T05:00:26.717Z,93.15
2018-02-06T05:02:52.525Z,93.37
2018-02-06T05:05:18.320Z,93.45
2018-02-06T05:07:44.135Z,93.86
2018-02-06T05:10:09.920Z,93.79
2018-02-06T05:12:35.704Z,93.82
2018-02-06T05:15:01.515Z,93.85
2018-02-06T05:17:27.312Z,93.78
2018-02-06T05:19:53.201Z,93.58
2018-02-06T05:22:19.015Z,93.49
2018-02-06T05:24:44.844Z,93.68
2018-02-06T05:27:10.603Z,93.77
2018-02-06T05:29:36.414Z,93.64
2018-02-06T05:32:02.220Z,93.53
2018-02-06T05:34:28.030Z,93.75
2018-02-06T05:36:53.925Z,93.33
2018-02-06T05:39:19.702Z,93.21
2018-02-06T05:41:45.487Z,93.39
2018-02-06T05:44:11.506Z,93.95
2018-02-06T05:46:37.310Z,94.33
2018-02-06T05:49:03.099Z,94.64
2018-02-06T05:51:32.027Z,94.70
2018-02-06T05:53:57.884Z,94.90
2018-02-06T05:56:23.679Z,94.79
2018-02-06T05:58:49.474Z,94.79
2018-02-06T06:01:15.260Z,94.64
2018-02-06T06:03:41.044Z,94.70
2018-02-06T06:06:06.836Z,94.74
2018-02-06T06:08:32.643Z,94.31
2018-02-06T06:10:58.678Z,93.79
2018-02-06T06:13:24.491Z,93.75
2018-02-06T06:15:50.284Z,93.59
2018-02-06T06:18:16.077Z,93.16
2018-02-06T06:20:41.944Z,93.37
2018-02-06T06:23:07.747Z,93.42
2018-02-06T06:25:33.551Z,93.41
2018-02-06T06:27:59.342Z,93.94
2018-02-06T06:30:25.134Z,94.22
2018-02-06T06:32:50.967Z,93.89
2018-02-06T06:35:16.764Z,94.03
2018-02-06T06:37:42.558Z,93.57
2018-02-06T06:40:08.372Z,93.54
2018-02-06T06:42:34.203Z,93.55
2018-02-06T06:45:00.018Z,93.81
2018-02-06T06:47:25.812Z,93.55
2018-02-06T06:49:51.600Z,93.60
2018-02-06T06:52:17.384Z,93.38
2018-02-06T06:54:43.410Z,93.50
2018-02-06T06:57:09.199Z,93.45
2018-02-06T06:59:35.002Z,93.53
2018-02-06T07:02:00.802Z,93.24
2018-02-06T07:04:26.603Z,93.28
2018-02-06T07:06:52.408Z,93.17
2018-02-06T07:09:18.201Z,92.85
2018-02-06T07:11:43.983Z,92.52
2018-02-06T07:14:09.827Z,92.28
2018-02-06T07:16:35.617Z,92.35
2018-02-06T07:19:01.398Z,92.61
2018-02-06T07:21:27.243Z,92.64
2018-02-06T07:23:53.035Z,92.50
2018-02-06T07:26:18.840Z,93.04
2018-02-06T07:28:44.736Z,93.03
2018-02-06T07:31:10.518Z,93.19
2018-02-06T07:33:36.312Z,92.90
2018-02-06T07:36:02.125Z,92.98
2018-02-06T07:38:27.923Z,92.91
2018-02-06T07:40:53.734Z,92.25
2018-02-06T07:43:19.534Z,92.39
2018-02-06T07:45:45.319Z,92.90
2018-02-06T07:48:11.144Z,93.31
2018-02-06T07:50:36.923Z,93.73
2018-02-06T07:53:02.707Z,93.42
2018-02-06T07:55:28.491Z,93.18
2018-02-06T07:57:54.476Z,93.31
2018-02-06T08:00:20.315Z,93.07
2018-02-06T08:02:46.114Z,92.88
2018-02-06T08:05:11.927Z,93.07
2018-02-06T08:07:37.730Z,93.23
2018-02-06T08:10:03.534Z,92.98
2018-02-06T08:12:29.907Z,92.93
2018-02-06T08:14:55.706Z,93.10
2018-02-06T08:17:21.638Z,92.51
2018-02-06T08:19:47.788Z,92.86
2018-02-06T08:22:14.537Z,92.73
2018-02-06T08:24:40.375Z,92.60
2018-02-06T08:27:06.498Z,91.74
2018-02-06T08:29:32.295Z,91.39
2018-02-06T08:31:58.799Z,90.84
2018-02-06T08:34:24.627Z,90.39
2018-02-06T08:36:50.714Z,90.26
2018-02-06T08:39:16.568Z,90.35
2018-02-06T08:41:42.354Z,89.88
2018-02-06T08:44:08.156Z,90.13
2018-02-06T08:46:33.951Z,89.93
2018-02-06T08:48:59.782Z,88.90
2018-02-06T08:51:25.834Z,89.41
2018-02-06T08:53:51.636Z,88.89
2018-02-06T08:56:17.605Z,88.38
2018-02-06T08:58:43.384Z,88.37
2018-02-06T09:01:09.181Z,87.44
2018-02-06T09:03:35.267Z,85.76
2018-02-06T09:06:01.371Z,85.58
2018-02-06T09:08:27.166Z,85.69
2018-02-06T09:10:52.980Z,85.91
2018-02-06T09:13:18.818Z,85.15
2018-02-06T09:15:44.963Z,85.13
2018-02-06T09:18:10.755Z,85.03
2018-02-06T09:20:36.538Z,84.31
2018-02-06T09:23:02.560Z,83.59
2018-02-06T09:25:28.415Z,83.13
2018-02-06T09:27:54.242Z,82.04
2018-02-06T09:30:20.043Z,80.27
2018-02-06T09:32:46.319Z,79.21
2018-02-06T09:35:12.122Z,87.57
2018-02-06T09:37:38.250Z,79.67
2018-02-06T09:40:04.222Z,78.40
2018-02-06T09:42:30.302Z,77.60
2018-02-06T09:44:56.138Z,76.70
2018-02-06T09:47:22.215Z,76.04
2018-02-06T09:49:48.092Z,75.61
2018-02-06T09:52:14.271Z,76.60
2018-02-06T09:54:40.104Z,79.35
2018-02-06T09:57:05.882Z,73.55
2018-02-06T09:59:31.702Z,73.82
2018-02-06T10:01:57.629Z,72.87
2018-02-06T10:04:23.530Z,72.81
2018-02-06T10:06:49.331Z,71.96
2018-02-06T10:09:15.321Z,71.40
2018-02-06T10:11:41.546Z,70.47
2018-02-06T10:14:07.578Z,70.73
2018-02-06T10:16:33.362Z,70.28
2018-02-06T10:18:59.188Z,70.17
2018-02-06T10:21:25.245Z,78.61
2018-02-06T10:23:51.030Z,71.59
2018-02-06T10:26:16.846Z,69.96
2018-02-06T10:28:42.635Z,70.89
2018-02-06T10:31:08.420Z,65.74
2018-02-06T10:33:34.240Z,64.69
2018-02-06T10:36:00.071Z,65.63
2018-02-06T10:38:25.858Z,66.47
2018-02-06T10:40:52.255Z,64.03
2018-02-06T10:43:18.082Z,65.48
2018-02-06T10:45:43.850Z,64.63
2018-02-06T10:48:09.637Z,63.90
2018-02-06T10:50:35.438Z,64.28
2018-02-06T10:53:01.247Z,63.45
2018-02-06T10:55:27.899Z,64.38
2018-02-06T10:57:53.699Z,63.22
2018-02-06T11:00:19.494Z,63.11
2018-02-06T11:02:45.325Z,62.43
2018-02-06T11:05:11.110Z,62.57
2018-02-06T11:07:36.935Z,62.97
2018-02-06T11:10:02.772Z,62.40
2018-02-06T11:12:28.550Z,62.88
2018-02-06T11:14:54.328Z,62.54
2018-02-06T11:17:20.125Z,63.18
2018-02-06T11:19:45.982Z,60.84
2018-02-06T11:22:12.050Z,62.46
2018-02-06T11:24:38.284Z,61.93
2018-02-06T11:27:04.107Z,78.98
2018-02-06T11:29:29.906Z,59.96
2018-02-06T11:31:55.761Z,61.28
2018-02-06T11:34:21.569Z,61.06
2018-02-06T11:36:47.398Z,58.82
2018-02-06T11:39:13.182Z,60.68
2018-02-06T11:41:38.990Z,59.53
2018-02-06T11:44:05.262Z,59.55
2018-02-06T11:46:31.050Z,60.76
2018-02-06T11:48:56.842Z,57.83
2018-02-06T11:51:22.651Z,58.25
2018-02-06T11:53:48.434Z,57.87
2018-02-06T11:56:14.220Z,67.30
2018-02-06T11:58:40.027Z,58.10
2018-02-06T12:01:05.847Z,65.06
2018-02-06T12:03:31.657Z,58.23
2018-02-06T12:05:57.425Z,54.93
2018-02-06T12:08:23.208Z,56.99
2018-02-06T12:10:49.024Z,59.94
2018-02-06T12:13:14.807Z,56.58
2018-02-06T12:15:40.583Z,54.08
2018-02-06T12:18:06.366Z,57.10
2018-02-06T12:20:32.160Z,54.85
2018-02-06T12:22:57.966Z,55.63
2018-02-06T12:25:23.744Z,56.26
2018-02-06T12:27:49.535Z,56.42
2018-02-06T12:30:15.331Z,56.82
2018-02-06T12:32:41.459Z,55.09
2018-02-06T12:35:07.266Z,54.50
2018-02-06T12:37:33.055Z,53.47
2018-02-06T12:39:58.854Z,53.00
2018-02-06T12:42:24.686Z,54.77
2018-02-06T12:44:50.492Z,53.86
2018-02-06T12:47:16.287Z,52.42
2018-02-06T12:49:42.096Z,53.04
2018-02-06T12:52:08.116Z,53.94
2018-02-06T12:54:33.894Z,52.12
2018-02-06T12:56:59.682Z,50.98
2018-02-06T12:59:25.474Z,51.61
2018-02-06T13:01:51.253Z,53.72
2018-02-06T13:04:17.034Z,51.67
2018-02-06T13:06:43.038Z,52.04
2018-02-06T13:09:08.841Z,49.25
2018-02-06T13:11:34.618Z,53.36
2018-02-06T13:14:00.820Z,49.80
2018-02-06T13:16:26.641Z,50.35
2018-02-06T13:18:52.426Z,47.29
2018-02-06T13:21:18.336Z,48.93
2018-02-06T13:23:44.118Z,49.57
2018-02-06T13:26:09.906Z,48.42
2018-02-06T13:28:35.990Z,49.01
2018-02-06T13:31:01.784Z,49.33
2018-02-06T13:33:27.563Z,49.77
2018-02-06T13:35:53.362Z,48.68
2018-02-06T13:38:19.134Z,47.84
2018-02-06T13:40:44.924Z,47.10
2018-02-06T13:43:10.705Z,47.01
2018-02-06T13:45:36.490Z,47.73
2018-02-06T13:48:02.347Z,45.97
2018-02-06T13:50:28.482Z,45.33
2018-02-06T13:52:54.310Z,47.08
2018-02-06T13:55:20.091Z,46.96
2018-02-06T13:57:48.792Z,47.56
2018-02-06T14:00:14.748Z,47.50
2018-02-06T14:02:40.599Z,46.66
2018-02-06T14:05:06.399Z,48.15
2018-02-06T14:07:32.215Z,48.16
2018-02-06T14:09:58.016Z,48.09
2018-02-06T14:12:23.828Z,47.14
2018-02-06T14:14:50.509Z,47.88
2018-02-06T14:17:16.286Z,45.49
2018-02-06T14:19:42.079Z,47.61
2018-02-06T14:22:07.942Z,48.83
2018-02-06T14:24:33.784Z,49.32
2018-02-06T14:26:59.569Z,50.10
2018-02-06T14:29:25.398Z,49.38
2018-02-06T14:31:51.185Z,50.94
2018-02-06T14:34:16.986Z,47.86
2018-02-06T14:36:42.785Z,48.41
2018-02-06T14:39:08.573Z,50.22
2018-02-06T14:41:34.369Z,51.67
2018-02-06T14:44:00.203Z,51.13
2018-02-06T14:46:25.998Z,48.29
2018-02-06T14:48:51.906Z,48.29
2018-02-06T14:51:17.720Z,49.54
2018-02-06T14:53:43.525Z,49.52
2018-02-06T14:56:09.380Z,50.87
2018-02-06T14:58:35.182Z,51.36
2018-02-06T15:01:00.972Z,51.17
2018-02-06T15:03:26.774Z,52.07
2018-02-06T15:05:52.578Z,52.28
2018-02-06T15:08:18.467Z,53.97
2018-02-06T15:10:44.235Z,55.23
2018-02-06T15:13:10.285Z,55.28
2018-02-06T15:15:36.064Z,66.99
2018-02-06T15:18:01.855Z,49.49
2018-02-06T15:20:27.684Z,57.76
2018-02-06T15:22:53.477Z,51.01
2018-02-06T15:25:19.282Z,47.88
2018-02-06T15:27:45.402Z,51.81
2018-02-06T15:30:11.221Z,52.60
2018-02-06T15:32:37.004Z,47.79
2018-02-06T15:35:03.216Z,45.74
2018-02-06T15:37:29.006Z,51.81
2018-02-06T15:39:54.807Z,46.06
2018-02-06T15:42:20.630Z,46.45
2018-02-06T15:44:46.420Z,49.72
2018-02-06T15:47:12.214Z,45.45
2018-02-06T15:49:38.026Z,45.72
2018-02-06T15:52:03.809Z,51.25
2018-02-06T15:54:29.596Z,49.67
2018-02-06T15:56:55.407Z,50.64
2018-02-06T15:59:21.215Z,49.99
2018-02-06T16:01:47.006Z,52.40
2018-02-06T16:04:12.815Z,54.30
2018-02-06T16:06:38.603Z,51.79
2018-02-06T16:09:04.409Z,56.24
2018-02-06T16:11:30.220Z,52.56
2018-02-06T16:13:56.010Z,54.26
2018-02-06T16:16:21.788Z,53.64
2018-02-06T16:18:47.890Z,50.78
2018-02-06T16:21:13.715Z,53.64
2018-02-06T16:23:39.505Z,51.80
2018-02-06T16:26:05.364Z,49.02
2018-02-06T16:28:31.124Z,53.03
2018-02-06T16:30:56.908Z,51.62
2018-02-06T16:33:22.974Z,50.16
2018-02-06T16:35:48.760Z,50.16
2018-02-06T16:38:14.550Z,47.42
2018-02-06T16:40:40.352Z,52.34
2018-02-06T16:43:06.145Z,51.87
2018-02-06T16:45:31.937Z,51.70
2018-02-06T16:47:57.747Z,52.57
2018-02-06T16:50:23.567Z,55.92
2018-02-06T16:52:49.395Z,56.89
2018-02-06T16:55:15.215Z,57.93
2018-02-06T16:57:41.011Z,58.73
2018-02-06T17:00:06.868Z,59.37
2018-02-06T17:02:39.039Z,60.04
2018-02-06T17:05:04.820Z,60.32
2018-02-06T17:07:30.603Z,60.72
2018-02-06T17:09:56.402Z,61.19
2018-02-06T17:12:22.180Z,61.50
2018-02-06T17:14:47.978Z,61.83
2018-02-06T17:17:14.180Z,62.16
2018-02-06T17:19:39.964Z,62.41
2018-02-06T17:22:05.841Z,63.04
2018-02-06T17:24:31.603Z,62.81
2018-02-06T17:26:57.382Z,62.81
2018-02-06T17:29:23.173Z,63.53
2018-02-06T17:31:48.986Z,63.09
2018-02-06T17:34:14.771Z,63.95
2018-02-06T17:36:40.554Z,63.55
2018-02-06T17:39:06.397Z,63.40
2018-02-06T17:41:32.175Z,64.30
2018-02-06T17:43:57.963Z,63.57
2018-02-06T17:46:23.758Z,63.82
2018-02-06T17:48:49.557Z,64.06
2018-02-06T17:51:15.343Z,64.11
2018-02-06T17:53:41.394Z,63.81
2018-02-06T17:56:07.204Z,64.12
2018-02-06T17:58:32.989Z,63.74
2018-02-06T18:00:59.114Z,63.66
2018-02-06T18:03:24.904Z,64.10
2018-02-06T18:05:50.682Z,63.74
2018-02-06T18:08:16.507Z,64.34
2018-02-06T18:10:42.347Z,65.13
2018-02-06T18:13:08.137Z,64.97
2018-02-06T18:15:33.954Z,64.27
2018-02-06T18:17:59.740Z,64.89
2018-02-06T18:20:25.518Z,64.99
2018-02-06T18:22:51.306Z,65.20
2018-02-06T18:25:17.102Z,65.47
2018-02-06T18:27:42.895Z,64.70
2018-02-06T18:30:08.677Z,64.62
2018-02-06T18:32:34.458Z,64.78
2018-02-06T18:35:00.470Z,64.48
2018-02-06T18:37:26.474Z,65.34
2018-02-06T18:39:52.271Z,65.99
2018-02-06T18:42:18.075Z,65.81
2018-02-06T18:44:43.856Z,66.11
2018-02-06T18:47:09.731Z,65.88
2018-02-06T18:49:42.512Z,66.20
2018-02-06T18:52:08.299Z,65.82
2018-02-06T18:54:34.122Z,65.66
2018-02-06T18:57:06.880Z,66.93
2018-02-06T18:59:32.671Z,67.90
2018-02-06T19:01:58.484Z,67.69
2018-02-06T19:04:24.275Z,67.44
2018-02-06T19:06:50.056Z,68.14
2018-02-06T19:09:15.858Z,69.36
2018-02-06T19:11:41.643Z,68.02
2018-02-06T19:14:07.431Z,68.64
2018-02-06T19:16:33.219Z,68.02
2018-02-06T19:18:59.056Z,67.78
2018-02-06T19:21:24.831Z,68.91
2018-02-06T19:23:50.636Z,68.91
2018-02-06T19:26:16.465Z,69.41
2018-02-06T19:28:42.251Z,68.92
2018-02-06T19:31:08.073Z,69.05
2018-02-06T19:33:33.831Z,69.68
2018-02-06T19:35:59.645Z,70.11
2018-02-06T19:38:25.468Z,69.63
2018-02-06T19:40:51.558Z,68.99
2018-02-06T19:43:17.346Z,70.28
2018-02-06T19:45:43.141Z,69.77
2018-02-06T19:48:08.967Z,70.19
2018-02-06T19:50:34.746Z,70.63
2018-02-06T19:53:00.526Z,70.79
2018-02-06T19:55:26.320Z,70.50
2018-02-06T19:57:52.122Z,70.69
2018-02-06T20:00:17.922Z,70.30
2018-02-06T20:02:43.723Z,70.89
2018-02-06T20:05:09.551Z,71.00
2018-02-06T20:07:35.354Z,71.13
2018-02-06T20:10:01.151Z,71.10
2018-02-06T20:12:26.987Z,71.76
2018-02-06T20:14:52.787Z,71.50
2018-02-06T20:17:18.582Z,70.39
2018-02-06T20:19:44.377Z,71.42
2018-02-06T20:22:10.160Z,71.06
2018-02-06T20:24:35.946Z,71.54
2018-02-06T20:27:01.744Z,72.16
2018-02-06T20:29:27.540Z,72.24
2018-02-06T20:31:53.314Z,72.03
2018-02-06T20:34:19.108Z,73.65
2018-02-06T20:36:44.961Z,74.86
2018-02-06T20:39:10.743Z,73.69
2018-02-06T20:41:36.530Z,73.61
2018-02-06T20:44:02.354Z,73.39
2018-02-06T20:46:28.130Z,72.58
2018-02-06T20:48:53.919Z,73.10
2018-02-06T20:51:19.690Z,72.97
2018-02-06T20:53:45.507Z,73.50
2018-02-06T20:56:11.300Z,73.12
2018-02-06T20:58:37.093Z,73.22
2018-02-06T21:01:02.934Z,74.49
2018-02-06T21:03:28.719Z,74.30
2018-02-06T21:05:54.519Z,74.71
2018-02-06T21:08:20.354Z,75.65
2018-02-06T21:10:46.155Z,74.49
2018-02-06T21:13:11.951Z,75.29
2018-02-06T21:15:37.744Z,74.82
2018-02-06T21:18:03.539Z,74.44
2018-02-06T21:20:29.607Z,74.81
2018-02-06T21:22:55.402Z,74.95
2018-02-06T21:25:21.184Z,74.51
2018-02-06T21:27:46.990Z,75.35
2018-02-06T21:30:12.790Z,75.43
2018-02-06T21:32:38.615Z,75.25
2018-02-06T21:35:04.424Z,74.93
2018-02-06T21:37:30.211Z,74.46
2018-02-06T21:39:56.005Z,74.72
2018-02-06T21:42:21.814Z,74.68
2018-02-06T21:44:47.609Z,74.97
2018-02-06T21:47:13.394Z,74.62
2018-02-06T21:49:39.189Z,74.92
2018-02-06T21:52:05.022Z,75.81
2018-02-06T21:54:30.828Z,75.33
2018-02-06T21:56:56.607Z,75.70
2018-02-06T21:59:22.402Z,75.44
2018-02-06T22:01:48.190Z,76.19
2018-02-06T22:04:13.987Z,75.69
2018-02-06T22:06:39.790Z,75.49
2018-02-06T22:09:05.581Z,76.12
2018-02-06T22:11:31.358Z,75.67
2018-02-06T22:13:57.150Z,77.89
2018-02-06T22:16:22.947Z,80.26
2018-02-06T22:18:48.727Z,85.43
2018-02-06T22:21:14.511Z,77.50
2018-02-06T22:23:40.300Z,75.04
2018-02-06T22:26:06.113Z,74.95
2018-02-06T22:28:31.890Z,69.95
2018-02-06T22:30:57.679Z,69.64
2018-02-06T22:33:23.662Z,69.69
2018-02-06T22:35:49.454Z,73.33
2018-02-06T22:38:15.231Z,72.98
2018-02-06T22:40:41.047Z,66.15
2018-02-06T22:43:06.850Z,62.76
2018-02-06T22:45:32.651Z,67.37
2018-02-06T22:47:58.446Z,71.46
2018-02-06T22:50:24.262Z,73.29
2018-02-06T22:52:50.055Z,74.44
2018-02-06T22:55:15.842Z,75.34
2018-02-06T22:57:41.664Z,76.71
2018-02-06T23:00:07.449Z,77.12
2018-02-06T23:02:33.238Z,77.44
2018-02-06T23:04:59.039Z,76.32
2018-02-06T23:07:24.828Z,76.54
2018-02-06T23:09:50.629Z,78.10
2018-02-06T23:12:16.463Z,78.53
2018-02-06T23:14:42.250Z,77.66
2018-02-06T23:17:08.026Z,78.00
2018-02-06T23:19:33.843Z,78.71
2018-02-06T23:21:59.631Z,78.97
2018-02-06T23:24:25.399Z,79.04
2018-02-06T23:26:51.219Z,84.71
2018-02-06T23:29:17.012Z,85.08
2018-02-06T23:31:42.801Z,82.21
2018-02-06T23:34:08.616Z,80.99
2018-02-06T23:36:34.388Z,80.95
2018-02-06T23:39:00.176Z,80.46
2018-02-06T23:41:25.978Z,81.02
2018-02-06T23:43:51.804Z,81.31
2018-02-06T23:46:17.595Z,81.36
2018-02-06T23:48:43.399Z,81.00
2018-02-06T23:51:09.220Z,81.49
2018-02-06T23:53:35.036Z,81.26
2018-02-06T23:56:00.883Z,81.71
2018-02-06T23:58:26.670Z,81.27
